createdAt,value
2018-05-17T00:01:30.888Z,7.87
2018-05-17T00:03:59.248Z,6.93
2018-05-17T00:06:27.568Z,7.77
2018-05-17T00:08:55.930Z,7.45
2018-05-17T00:11:24.256Z,6.90
2018-05-17T00:13:52.625Z,7.62
2018-05-17T00:16:20.960Z,6.45
2018-05-17T00:18:49.301Z,8.13
2018-05-17T00:21:17.657Z,6.35
2018-05-17T00:23:45.984Z,6.23
2018-05-17T00:26:14.346Z,6.50
2018-05-17T00:28:42.680Z,5.82
2018-05-17T00:31:11.041Z,6.57
2018-05-17T00:33:39.369Z,6.00
2018-05-17T00:36:07.724Z,7.80
2018-05-17T00:38:36.060Z,7.70
2018-05-17T00:41:04.418Z,7.55
2018-05-17T00:43:32.745Z,6.57
2018-05-17T00:46:01.101Z,6.47
2018-05-17T00:48:29.428Z,7.07
2018-05-17T00:50:57.776Z,7.10
2018-05-17T00:53:31.934Z,6.82
2018-05-17T00:56:00.288Z,7.47
2018-05-17T00:58:28.624Z,7.22
2018-05-17T01:00:56.980Z,7.43
2018-05-17T01:03:25.316Z,5.87
2018-05-17T01:05:53.672Z,7.80
2018-05-17T01:08:22.017Z,7.37
2018-05-17T01:10:50.374Z,7.32
2018-05-17T01:13:18.701Z,8.43
2018-05-17T01:15:47.057Z,7.60
2018-05-17T01:18:15.406Z,7.25
2018-05-17T01:20:43.765Z,6.35
2018-05-17T01:23:12.097Z,6.28
2018-05-17T01:25:40.449Z,6.50
2018-05-17T01:28:08.780Z,6.55
2018-05-17T01:30:37.143Z,7.32
2018-05-17T01:33:05.477Z,6.30
2018-05-17T01:35:33.848Z,6.68
2018-05-17T01:38:13.792Z,6.28
2018-05-17T01:40:42.156Z,5.62
2018-05-17T01:43:10.497Z,5.87
2018-05-17T01:45:38.844Z,6.05
2018-05-17T01:48:07.188Z,6.95
2018-05-17T01:50:35.544Z,7.85
2018-05-17T01:53:03.873Z,7.10
2018-05-17T01:55:32.229Z,6.93
2018-05-17T01:58:00.570Z,7.07
2018-05-17T02:00:28.927Z,6.90
2018-05-17T02:02:57.275Z,6.00
2018-05-17T02:05:25.629Z,6.05
2018-05-17T02:07:53.961Z,6.55
2018-05-17T02:10:22.323Z,7.15
2018-05-17T02:12:50.679Z,7.12
2018-05-17T02:15:19.032Z,6.80
2018-05-17T02:17:47.369Z,7.45
2018-05-17T02:20:15.727Z,6.30
2018-05-17T02:22:44.065Z,7.70
2018-05-17T02:25:12.415Z,7.20
2018-05-17T02:27:40.765Z,6.70
2018-05-17T02:30:09.121Z,6.30
2018-05-17T02:32:37.456Z,7.00
2018-05-17T02:35:05.821Z,7.95
2018-05-17T02:37:34.161Z,8.23
2018-05-17T02:40:02.497Z,7.30
2018-05-17T02:42:30.852Z,6.82
2018-05-17T02:44:59.201Z,7.10
2018-05-17T02:47:27.553Z,6.32
2018-05-17T02:49:55.896Z,6.70
2018-05-17T02:52:24.252Z,6.62
2018-05-17T02:54:52.588Z,8.45
2018-05-17T02:57:20.955Z,6.57
2018-05-17T02:59:49.281Z,7.25
2018-05-17T03:02:17.642Z,6.75
2018-05-17T03:04:45.968Z,8.43
2018-05-17T03:07:14.320Z,8.23
2018-05-17T03:09:42.657Z,6.57
2018-05-17T03:12:11.013Z,6.68
2018-05-17T03:14:39.354Z,6.40
2018-05-17T03:17:07.704Z,7.75
2018-05-17T03:19:36.041Z,6.30
2018-05-17T03:22:04.396Z,8.05
2018-05-17T03:24:32.729Z,7.60
2018-05-17T03:27:01.094Z,7.50
2018-05-17T03:29:29.424Z,8.05
2018-05-17T03:31:57.777Z,6.70
2018-05-17T03:34:26.191Z,6.70
2018-05-17T03:36:54.460Z,6.40
2018-05-17T03:39:22.793Z,6.35
2018-05-17T03:41:51.148Z,6.32
2018-05-17T03:44:19.485Z,6.62
2018-05-17T03:46:47.837Z,7.00
2018-05-17T03:49:16.173Z,8.00
2018-05-17T03:51:44.576Z,6.50
2018-05-17T03:54:12.869Z,8.35
2018-05-17T03:56:41.229Z,8.38
2018-05-17T03:59:09.557Z,7.57
2018-05-17T04:01:49.636Z,7.32
2018-05-17T04:07:19.924Z,6.25
2018-05-17T04:09:48.253Z,8.60
2018-05-17T04:12:16.608Z,8.60
2018-05-17T04:14:44.936Z,6.68
2018-05-17T04:17:13.295Z,7.32
2018-05-17T04:19:41.617Z,6.72
2018-05-17T04:22:09.968Z,6.78
2018-05-17T04:24:38.305Z,6.45
2018-05-17T04:27:06.657Z,6.85
2018-05-17T04:29:34.993Z,5.93
2018-05-17T04:32:03.346Z,8.48
2018-05-17T04:34:31.677Z,6.93
2018-05-17T04:37:00.041Z,7.18
2018-05-17T04:39:28.372Z,7.10
2018-05-17T04:41:56.729Z,6.37
2018-05-17T04:44:25.057Z,9.52
2018-05-17T04:46:53.408Z,6.85
2018-05-17T04:49:21.749Z,7.43
2018-05-17T04:51:50.105Z,6.45
2018-05-17T04:54:18.433Z,7.80
2018-05-17T04:56:46.789Z,6.37
2018-05-17T04:59:15.130Z,8.57
2018-05-17T05:01:43.480Z,8.83
2018-05-17T05:04:12.012Z,7.63
2018-05-17T05:06:40.584Z,8.10
2018-05-17T05:09:08.933Z,6.00
2018-05-17T05:11:37.259Z,7.17
2018-05-17T05:14:05.620Z,7.03
2018-05-17T05:16:35.962Z,8.77
2018-05-17T05:19:04.304Z,7.47
2018-05-17T05:21:32.640Z,8.17
2018-05-17T05:24:00.985Z,8.50
2018-05-17T05:26:29.317Z,6.83
2018-05-17T05:28:57.673Z,8.17
2018-05-17T05:31:26.084Z,8.00
2018-05-17T05:33:54.437Z,7.80
2018-05-17T05:36:22.848Z,7.62
2018-05-17T05:38:51.192Z,7.03
2018-05-17T05:41:19.529Z,7.85
2018-05-17T05:43:47.897Z,9.23
2018-05-17T05:46:16.229Z,7.10
2018-05-17T05:48:44.576Z,7.72
2018-05-17T05:51:12.905Z,8.13
2018-05-17T05:53:41.259Z,7.32
2018-05-17T05:56:09.593Z,9.03
2018-05-17T05:58:37.950Z,8.00
2018-05-17T06:01:06.284Z,8.37
2018-05-17T06:03:34.632Z,7.23
2018-05-17T06:06:02.960Z,7.60
2018-05-17T06:08:31.314Z,9.07
2018-05-17T06:10:59.646Z,9.20
2018-05-17T06:13:28.001Z,9.20
2018-05-17T06:15:56.337Z,9.88
2018-05-17T06:18:24.690Z,8.80
2018-05-17T06:20:53.020Z,10.53
2018-05-17T06:23:21.386Z,11.90
2018-05-17T06:25:49.716Z,12.13
2018-05-17T06:28:18.078Z,10.40
2018-05-17T06:30:46.408Z,12.30
2018-05-17T06:33:14.772Z,12.57
2018-05-17T06:35:43.113Z,12.77
2018-05-17T06:38:11.474Z,11.50
2018-05-17T06:40:39.806Z,13.00
2018-05-17T06:43:08.170Z,12.60
2018-05-17T06:45:36.510Z,11.40
2018-05-17T06:48:04.880Z,13.02
2018-05-17T06:50:33.213Z,12.73
2018-05-17T06:53:01.584Z,14.20
2018-05-17T06:55:29.914Z,12.10
2018-05-17T06:57:58.276Z,15.40
2018-05-17T07:00:26.612Z,12.60
2018-05-17T07:02:54.973Z,12.10
2018-05-17T07:05:23.308Z,12.50
2018-05-17T07:07:51.668Z,12.13
2018-05-17T07:10:20.028Z,14.43
2018-05-17T07:12:48.388Z,12.03
2018-05-17T07:15:16.749Z,12.55
2018-05-17T07:17:45.085Z,10.27
2018-05-17T07:20:13.449Z,10.97
2018-05-17T07:22:41.788Z,10.75
2018-05-17T07:25:10.153Z,9.85
2018-05-17T07:27:38.480Z,10.70
2018-05-17T07:30:06.865Z,11.23
2018-05-17T07:32:35.200Z,9.40
2018-05-17T07:35:03.594Z,9.27
2018-05-17T07:37:31.925Z,8.93
2018-05-17T07:40:00.429Z,7.68
2018-05-17T07:42:28.757Z,8.70
2018-05-17T07:44:57.110Z,7.90
2018-05-17T07:47:25.436Z,8.60
2018-05-17T07:49:53.785Z,7.73
2018-05-17T07:52:22.121Z,8.60
2018-05-17T07:54:50.486Z,8.33
2018-05-17T07:57:18.823Z,7.37
2018-05-17T07:59:48.077Z,8.20
2018-05-17T08:02:16.404Z,9.77
2018-05-17T08:04:44.756Z,6.93
2018-05-17T08:07:13.090Z,6.22
2018-05-17T08:09:41.436Z,7.05
2018-05-17T08:12:09.764Z,7.30
2018-05-17T08:14:38.111Z,5.78
2018-05-17T08:17:06.440Z,8.10
2018-05-17T08:19:34.876Z,7.57
2018-05-17T08:22:03.197Z,7.37
2018-05-17T08:24:31.552Z,7.57
2018-05-17T08:26:59.880Z,6.35
2018-05-17T08:29:28.237Z,7.35
2018-05-17T08:31:56.572Z,6.12
2018-05-17T08:34:24.933Z,6.95
2018-05-17T08:36:53.259Z,7.63
2018-05-17T08:39:21.630Z,8.13
2018-05-17T08:41:49.940Z,7.60
2018-05-17T08:44:18.288Z,7.10
2018-05-17T08:46:46.621Z,7.77
2018-05-17T08:49:14.972Z,8.48
2018-05-17T08:51:43.309Z,7.13
2018-05-17T08:54:11.665Z,7.53
2018-05-17T08:56:40.312Z,7.20
2018-05-17T08:59:08.718Z,7.30
2018-05-17T09:01:36.996Z,7.83
2018-05-17T09:04:05.344Z,7.40
2018-05-17T09:06:33.672Z,8.80
2018-05-17T09:09:02.034Z,6.80
2018-05-17T09:11:30.356Z,7.40
2018-05-17T09:13:58.720Z,8.30
2018-05-17T09:16:27.048Z,7.27
2018-05-17T09:18:55.386Z,6.23
2018-05-17T09:21:23.735Z,7.93
2018-05-17T09:23:52.081Z,7.50
2018-05-17T09:26:20.449Z,7.40
2018-05-17T09:28:48.779Z,8.75
2018-05-17T09:31:17.141Z,6.80
2018-05-17T09:33:45.473Z,9.13
2018-05-17T09:36:13.836Z,7.77
2018-05-17T09:38:42.172Z,7.67
2018-05-17T09:41:10.541Z,7.10
2018-05-17T09:43:38.864Z,7.30
2018-05-17T09:46:07.300Z,6.65
2018-05-17T09:48:35.549Z,6.43
2018-05-17T09:51:03.904Z,6.32
2018-05-17T09:53:32.237Z,7.95
2018-05-17T09:56:01.217Z,6.28
2018-05-17T09:58:29.549Z,8.17
2018-05-17T10:00:57.932Z,7.43
2018-05-17T10:03:26.260Z,6.80
2018-05-17T10:05:54.613Z,7.68
2018-05-17T10:08:22.946Z,7.10
2018-05-17T10:10:51.307Z,7.00
2018-05-17T10:13:19.637Z,5.87
2018-05-17T10:15:47.994Z,7.43
2018-05-17T10:18:16.325Z,7.60
2018-05-17T10:20:44.680Z,7.03
2018-05-17T10:23:13.107Z,7.63
2018-05-17T10:25:41.377Z,7.25
2018-05-17T10:28:09.705Z,7.47
2018-05-17T10:30:38.051Z,7.47
2018-05-17T10:33:06.382Z,8.10
2018-05-17T10:35:34.740Z,6.73
2018-05-17T10:38:03.061Z,7.37
2018-05-17T10:40:31.417Z,7.40
2018-05-17T10:42:59.759Z,7.22
2018-05-17T10:45:28.110Z,6.60
2018-05-17T10:47:56.437Z,7.85
2018-05-17T10:50:24.794Z,7.53
2018-05-17T10:52:53.116Z,7.10
2018-05-17T10:55:21.464Z,7.63
2018-05-17T10:57:49.797Z,7.37
2018-05-17T11:00:18.152Z,6.47
2018-05-17T11:02:46.482Z,6.30
2018-05-17T11:05:14.813Z,6.55
2018-05-17T11:07:43.168Z,7.50
2018-05-17T11:10:11.497Z,7.50
2018-05-17T11:12:39.845Z,7.80
2018-05-17T11:15:08.199Z,7.77
2018-05-17T11:17:36.532Z,7.78
2018-05-17T11:20:04.860Z,7.47
2018-05-17T11:22:33.213Z,6.80
2018-05-17T11:25:01.550Z,6.12
2018-05-17T11:27:29.964Z,6.72
2018-05-17T11:29:58.296Z,6.37
2018-05-17T11:32:26.808Z,7.90
2018-05-17T11:34:55.141Z,7.10
2018-05-17T11:37:23.649Z,7.07
2018-05-17T11:39:52.135Z,9.20
2018-05-17T11:42:20.565Z,6.90
2018-05-17T11:44:48.999Z,7.00
2018-05-17T11:47:17.354Z,7.20
2018-05-17T11:49:45.686Z,6.67
2018-05-17T11:52:14.952Z,5.82
2018-05-17T11:54:43.325Z,7.83
2018-05-17T11:57:11.701Z,6.77
2018-05-17T11:59:40.129Z,6.93
2018-05-17T12:02:08.593Z,7.57
2018-05-17T12:04:37.043Z,6.40
2018-05-17T12:07:05.600Z,6.83
2018-05-17T12:09:34.000Z,6.18
2018-05-17T12:12:02.906Z,6.37
2018-05-17T12:14:31.254Z,7.10
2018-05-17T12:16:59.640Z,6.67
2018-05-17T12:19:27.970Z,7.10
2018-05-17T12:21:56.329Z,6.75
2018-05-17T12:24:24.664Z,6.90
2018-05-17T12:26:53.048Z,6.70
2018-05-17T12:29:21.372Z,5.87
2018-05-17T12:31:49.940Z,6.50
2018-05-17T12:34:18.166Z,6.40
2018-05-17T12:36:46.521Z,7.00
2018-05-17T12:39:15.209Z,7.93
2018-05-17T12:41:43.729Z,7.60
2018-05-17T12:44:12.057Z,8.17
2018-05-17T12:46:40.457Z,6.43
2018-05-17T12:49:08.788Z,6.60
2018-05-17T12:51:37.264Z,6.78
2018-05-17T12:54:05.593Z,7.40
2018-05-17T12:56:33.945Z,7.00
2018-05-17T12:59:02.285Z,7.27
2018-05-17T13:01:30.652Z,5.90
2018-05-17T13:03:58.984Z,6.32
2018-05-17T13:06:27.321Z,7.27
2018-05-17T13:08:55.717Z,7.87
2018-05-17T13:11:24.041Z,6.57
2018-05-17T13:13:52.417Z,8.67
2018-05-17T13:16:20.861Z,8.40
2018-05-17T13:18:49.214Z,7.20
2018-05-17T13:21:17.576Z,7.90
2018-05-17T13:23:45.933Z,6.35
2018-05-17T13:26:14.578Z,6.28
2018-05-17T13:28:43.338Z,5.70
2018-05-17T13:31:12.034Z,6.32
2018-05-17T13:33:40.675Z,8.60
2018-05-17T13:36:09.255Z,5.68
2018-05-17T13:38:37.604Z,7.00
2018-05-17T13:41:05.933Z,7.10
2018-05-17T13:43:34.288Z,6.35
2018-05-17T13:46:02.617Z,6.17
2018-05-17T13:48:30.982Z,8.60
2018-05-17T13:50:59.321Z,7.15
2018-05-17T13:53:27.669Z,6.50
2018-05-17T13:55:56.009Z,5.75
2018-05-17T13:58:24.368Z,6.95
2018-05-17T14:00:52.692Z,7.32
2018-05-17T14:03:21.040Z,8.13
2018-05-17T14:05:49.385Z,7.87
2018-05-17T14:08:17.738Z,6.70
2018-05-17T14:10:46.064Z,6.28
2018-05-17T14:13:14.416Z,5.50
2018-05-17T14:15:42.749Z,7.15
2018-05-17T14:18:11.098Z,5.90
2018-05-17T14:20:39.429Z,8.02
2018-05-17T14:23:07.806Z,6.80
2018-05-17T14:25:36.116Z,7.43
2018-05-17T14:28:04.464Z,7.20
2018-05-17T14:30:32.793Z,8.27
2018-05-17T14:33:01.150Z,7.27
2018-05-17T14:35:29.476Z,6.20
2018-05-17T14:37:57.840Z,6.80
2018-05-17T14:40:26.169Z,6.00
2018-05-17T14:42:54.600Z,5.07
2018-05-17T14:45:25.930Z,5.20
2018-05-17T14:47:54.275Z,5.10
2018-05-17T14:50:22.604Z,5.53
2018-05-17T14:52:50.968Z,5.28
2018-05-17T14:55:19.296Z,6.03
2018-05-17T14:57:47.665Z,6.65
2018-05-17T15:00:15.990Z,6.00
2018-05-17T15:02:44.353Z,6.90
2018-05-17T15:05:12.681Z,7.03
2018-05-17T15:07:41.008Z,7.77
2018-05-17T15:10:09.366Z,7.50
2018-05-17T15:12:38.157Z,8.10
2018-05-17T15:15:06.511Z,7.97
2018-05-17T15:17:34.842Z,7.07
2018-05-17T15:20:03.189Z,9.23
2018-05-17T15:22:31.615Z,10.27
2018-05-17T15:24:59.952Z,7.43
2018-05-17T15:27:28.337Z,8.27
2018-05-17T15:29:56.748Z,9.88
2018-05-17T15:32:24.968Z,8.23
2018-05-17T15:34:53.337Z,7.60
2018-05-17T15:37:21.654Z,7.12
2018-05-17T15:39:50.000Z,8.60
2018-05-17T15:42:18.333Z,7.68
2018-05-17T15:44:46.685Z,8.73
2018-05-17T15:47:15.021Z,8.87
2018-05-17T15:49:43.381Z,9.10
2018-05-17T15:52:11.712Z,8.23
2018-05-17T15:54:40.069Z,10.13
2018-05-17T15:57:08.397Z,8.93
2018-05-17T15:59:36.748Z,8.80
2018-05-17T16:02:05.076Z,8.30
2018-05-17T16:04:33.428Z,8.60
2018-05-17T16:07:01.757Z,8.77
2018-05-17T16:09:30.109Z,8.75
2018-05-17T16:11:58.441Z,7.90
2018-05-17T16:14:26.789Z,8.97
2018-05-17T16:16:55.121Z,8.10
2018-05-17T16:19:23.467Z,7.80
2018-05-17T16:21:51.934Z,8.93
2018-05-17T16:24:20.155Z,8.57
2018-05-17T16:26:48.484Z,9.00
2018-05-17T16:29:16.832Z,9.10
2018-05-17T16:31:45.160Z,9.77
2018-05-17T16:34:14.448Z,8.40
2018-05-17T16:36:42.776Z,9.53
2018-05-17T16:39:11.123Z,7.97
2018-05-17T16:41:39.466Z,7.53
2018-05-17T16:44:07.817Z,9.23
2018-05-17T16:46:36.148Z,7.83
2018-05-17T16:49:04.513Z,9.77
2018-05-17T16:51:32.845Z,8.00
2018-05-17T16:54:01.261Z,8.40
2018-05-17T16:56:29.524Z,8.43
2018-05-17T16:58:57.876Z,8.52
2018-05-17T17:01:26.209Z,9.20
2018-05-17T17:03:54.560Z,8.70
2018-05-17T17:06:22.901Z,8.77
2018-05-17T17:08:51.221Z,8.60
2018-05-17T17:11:19.569Z,6.90
2018-05-17T17:13:47.902Z,8.77
2018-05-17T17:16:16.265Z,8.10
2018-05-17T17:18:44.589Z,8.10
2018-05-17T17:21:13.006Z,8.40
2018-05-17T17:23:41.611Z,7.37
2018-05-17T17:26:10.299Z,7.57
2018-05-17T17:28:38.724Z,8.87
2018-05-17T17:31:07.073Z,7.60
2018-05-17T17:33:35.400Z,7.33
2018-05-17T17:36:03.752Z,8.68
2018-05-17T17:38:32.085Z,7.85
2018-05-17T17:41:00.428Z,8.27
2018-05-17T17:43:28.757Z,8.43
2018-05-17T17:45:57.107Z,8.10
2018-05-17T17:48:25.437Z,8.00
2018-05-17T17:50:53.796Z,7.37
2018-05-17T17:53:22.128Z,8.57
2018-05-17T17:55:50.481Z,8.60
2018-05-17T17:58:18.817Z,9.02
2018-05-17T18:00:47.166Z,7.20
2018-05-17T18:03:15.493Z,7.43
2018-05-17T18:05:43.845Z,8.07
2018-05-17T18:08:12.176Z,7.53
2018-05-17T18:10:41.602Z,8.60
2018-05-17T18:13:10.285Z,8.60
2018-05-17T18:15:38.953Z,7.43
2018-05-17T18:18:07.708Z,7.25
2018-05-17T18:20:36.527Z,6.83
2018-05-17T18:23:05.292Z,7.73
2018-05-17T18:25:34.121Z,8.63
2018-05-17T18:28:02.838Z,7.85
2018-05-17T18:30:31.710Z,7.57
2018-05-17T18:33:00.403Z,6.95
2018-05-17T18:35:28.802Z,8.37
2018-05-17T18:37:57.132Z,6.80
2018-05-17T18:40:25.484Z,8.73
2018-05-17T18:42:53.820Z,8.80
2018-05-17T18:45:22.444Z,7.73
2018-05-17T18:47:50.772Z,7.27
2018-05-17T18:50:19.125Z,7.73
2018-05-17T18:52:47.449Z,8.37
2018-05-17T18:55:15.804Z,7.70
2018-05-17T18:57:44.132Z,8.10
2018-05-17T19:00:12.493Z,8.10
2018-05-17T19:02:40.828Z,8.77
2018-05-17T19:05:09.177Z,8.00
2018-05-17T19:07:37.513Z,8.80
2018-05-17T19:10:05.872Z,6.82
2018-05-17T19:12:34.192Z,6.40
2018-05-17T19:15:02.548Z,7.97
2018-05-17T19:17:30.888Z,6.50
2018-05-17T19:19:59.216Z,8.60
2018-05-17T19:22:27.564Z,7.00
2018-05-17T19:24:55.896Z,6.80
2018-05-17T19:27:24.240Z,6.67
2018-05-17T19:29:52.577Z,8.23
2018-05-17T19:32:20.934Z,7.30
2018-05-17T19:34:49.265Z,7.75
2018-05-17T19:37:17.697Z,7.80
2018-05-17T19:39:46.876Z,7.47
2018-05-17T19:42:15.230Z,6.73
2018-05-17T19:44:43.570Z,6.70
2018-05-17T19:47:11.958Z,7.57
2018-05-17T19:49:40.265Z,6.17
2018-05-17T19:52:08.622Z,6.33
2018-05-17T19:54:36.974Z,6.30
2018-05-17T19:57:05.318Z,6.10
2018-05-17T19:59:33.729Z,7.10
2018-05-17T20:02:02.165Z,6.73
2018-05-17T20:04:30.660Z,6.70
2018-05-17T20:06:59.181Z,6.47
2018-05-17T20:09:27.516Z,7.45
2018-05-17T20:11:55.868Z,6.80
2018-05-17T20:14:24.443Z,6.67
2018-05-17T20:16:52.998Z,6.25
2018-05-17T20:19:21.331Z,6.90
2018-05-17T20:21:49.685Z,8.37
2018-05-17T20:24:18.013Z,6.50
2018-05-17T20:26:46.362Z,6.25
2018-05-17T20:29:14.733Z,7.80
2018-05-17T20:31:43.064Z,6.20
2018-05-17T20:34:11.461Z,7.82
2018-05-17T20:36:39.859Z,7.00
2018-05-17T20:39:08.168Z,5.67
2018-05-17T20:41:36.517Z,7.23
2018-05-17T20:44:04.850Z,6.43
2018-05-17T20:46:33.215Z,7.77
2018-05-17T20:49:01.546Z,6.70
2018-05-17T20:51:29.902Z,7.85
2018-05-17T20:53:58.238Z,6.95
2018-05-17T20:56:26.661Z,7.20
2018-05-17T20:58:54.989Z,6.57
2018-05-17T21:01:23.378Z,7.40
2018-05-17T21:03:52.004Z,7.97
2018-05-17T21:06:20.389Z,7.10
2018-05-17T21:08:48.712Z,7.10
2018-05-17T21:11:17.098Z,6.82
2018-05-17T21:13:45.477Z,7.67
2018-05-17T21:16:14.093Z,6.45
2018-05-17T21:18:42.557Z,6.33
2018-05-17T21:21:10.968Z,6.77
2018-05-17T21:23:39.462Z,6.03
2018-05-17T21:26:07.775Z,7.80
2018-05-17T21:28:36.120Z,7.60
2018-05-17T21:31:04.647Z,5.77
2018-05-17T21:33:33.028Z,7.10
2018-05-17T21:36:01.357Z,5.93
2018-05-17T21:38:30.073Z,7.00
2018-05-17T21:40:58.402Z,6.20
2018-05-17T21:43:26.756Z,7.63
2018-05-17T21:45:55.084Z,7.40
2018-05-17T21:48:23.436Z,7.60
2018-05-17T21:50:51.770Z,6.50
2018-05-17T21:53:20.116Z,6.82
2018-05-17T21:55:48.444Z,9.93
2018-05-17T21:58:16.801Z,7.67
2018-05-17T22:00:45.148Z,7.40
2018-05-17T22:03:13.507Z,6.10
2018-05-17T22:05:41.833Z,7.63
2018-05-17T22:08:10.219Z,6.73
2018-05-17T22:10:38.539Z,7.30
2018-05-17T22:13:06.888Z,6.83
2018-05-17T22:15:35.216Z,7.07
2018-05-17T22:18:03.572Z,6.97
2018-05-17T22:20:31.897Z,6.43
2018-05-17T22:23:00.244Z,6.30
2018-05-17T22:25:28.577Z,6.53
2018-05-17T22:27:56.926Z,6.57
2018-05-17T22:30:25.253Z,6.55
2018-05-17T22:32:53.635Z,6.53
2018-05-17T22:35:21.936Z,6.90
2018-05-17T22:37:50.296Z,6.07
2018-05-17T22:40:18.629Z,8.10
2018-05-17T22:42:46.982Z,7.00
2018-05-17T22:45:15.300Z,6.97
2018-05-17T22:47:43.660Z,6.37
2018-05-17T22:50:12.000Z,6.97
2018-05-17T22:52:40.353Z,6.80
2018-05-17T22:55:08.684Z,6.65
2018-05-17T22:57:48.668Z,7.12
2018-05-17T23:00:17.013Z,8.43
2018-05-17T23:02:45.084Z,7.35
2018-05-17T23:05:13.423Z,6.85
2018-05-17T23:07:41.777Z,8.18
2018-05-17T23:10:10.116Z,7.05
2018-05-17T23:12:38.467Z,6.50
2018-05-17T23:15:06.800Z,6.93
2018-05-17T23:17:35.149Z,6.82
2018-05-17T23:20:03.476Z,5.83
2018-05-17T23:22:37.136Z,6.35
2018-05-17T23:25:08.198Z,6.20
2018-05-17T23:27:36.548Z,6.15
2018-05-17T23:30:04.880Z,8.48
2018-05-17T23:32:33.239Z,7.17
2018-05-17T23:35:01.577Z,7.05
2018-05-17T23:37:29.913Z,5.97
2018-05-17T23:40:10.034Z,6.65
2018-05-17T23:42:38.401Z,6.50
2018-05-17T23:45:06.728Z,6.97
2018-05-17T23:47:35.065Z,6.55
2018-05-17T23:50:03.416Z,6.67
2018-05-17T23:52:31.749Z,6.95
2018-05-17T23:55:00.105Z,6.20
2018-05-17T23:57:28.447Z,6.50
2018-05-17T23:59:56.793Z,6.20
